Time;durP1;ratioP1;P1;durP2;ratioP2;P2;SDS_P1;SDS_P2;PMS_P1;PMS_P2;Temp;Humidity;BMP_temperature;BMP_pressure;BME280_temperature;BME280_humidity;BME280_pressure;Samples;Min_cycle;Max_cycle;Signal;HPM_P1;HPM_P2
2020/12/29 00:02:22;;;;;;;19.30;11.97;;;;;;;4.28;100.00;98362.71;1787869;80;26292;-80
2020/12/29 00:04:52;;;;;;;17.70;11.67;;;;;;;4.28;100.00;98357.22;1757946;81;26295;-80
2020/12/29 00:07:21;;;;;;;20.90;11.63;;;;;;;4.26;100.00;98366.89;1821024;77;26397;-80
2020/12/29 00:09:51;;;;;;;23.73;12.20;;;;;;;4.26;100.00;98371.83;1787793;80;26695;-80
2020/12/29 00:12:21;;;;;;;17.70;11.83;;;;;;;4.26;100.00;98364.15;1821033;79;26267;-80
2020/12/29 00:14:51;;;;;;;18.47;12.23;;;;;;;4.29;100.00;98367.09;1787816;80;26226;-79
2020/12/29 00:17:21;;;;;;;21.17;12.60;;;;;;;4.21;100.00;98365.06;1757833;81;26681;-80
2020/12/29 00:19:51;;;;;;;19.90;12.00;;;;;;;4.27;100.00;98365.78;1820977;79;26638;-80
2020/12/29 00:22:21;;;;;;;17.63;11.33;;;;;;;4.22;100.00;98367.25;1787826;79;26217;-80
2020/12/29 00:24:51;;;;;;;17.43;11.27;;;;;;;4.21;100.00;98370.55;1821092;79;26687;-80
2020/12/29 00:27:21;;;;;;;18.73;11.63;;;;;;;4.20;100.00;98372.22;1821130;79;26301;-80
2020/12/29 00:29:50;;;;;;;16.27;10.67;;;;;;;4.18;100.00;98368.98;1820951;79;26216;-80
2020/12/29 00:32:20;;;;;;;18.83;11.73;;;;;;;4.15;100.00;98370.97;1821038;79;26429;-81
2020/12/29 00:34:51;;;;;;;19.27;12.13;;;;;;;4.12;100.00;98373.74;1821021;79;26257;-80
2020/12/29 00:37:21;;;;;;;15.97;10.80;;;;;;;4.08;100.00;98379.59;1821044;79;26425;-80
2020/12/29 00:39:50;;;;;;;19.70;11.47;;;;;;;4.04;100.00;98382.13;1821046;79;26707;-80
2020/12/29 00:42:20;;;;;;;17.63;11.27;;;;;;;4.06;100.00;98384.00;1787809;80;26295;-81
2020/12/29 00:44:51;;;;;;;18.87;10.67;;;;;;;4.03;100.00;98385.98;1757798;81;26308;-80
2020/12/29 00:47:20;;;;;;;15.20;10.10;;;;;;;3.94;100.00;98398.78;1821053;79;26282;-81
2020/12/29 00:49:53;;;;;;;14.80;9.97;;;;;;;3.95;100.00;98399.05;1787731;80;26225;-81
2020/12/29 00:52:23;;;;;;;16.87;11.00;;;;;;;3.92;100.00;98393.34;1821025;79;26677;-81
2020/12/29 00:54:53;;;;;;;16.50;11.00;;;;;;;3.92;100.00;98407.08;1787788;80;26230;-80
2020/12/29 00:57:23;;;;;;;20.40;11.40;;;;;;;3.94;100.00;98397.97;1821087;79;26812;-80
2020/12/29 00:59:53;;;;;;;17.23;10.73;;;;;;;3.94;100.00;98404.83;1787805;80;26223;-80
2020/12/29 01:02:23;;;;;;;17.90;10.70;;;;;;;3.92;100.00;98414.77;1821114;79;26264;-80
2020/12/29 01:04:53;;;;;;;20.10;11.60;;;;;;;3.95;100.00;98417.45;1787778;80;26712;-80
2020/12/29 01:07:23;;;;;;;16.83;11.00;;;;;;;3.93;100.00;98418.33;1757700;79;26233;-80
2020/12/29 01:09:52;;;;;;;14.53;10.07;;;;;;;3.93;100.00;98413.66;1820901;79;26266;-80
2020/12/29 01:12:22;;;;;;;15.70;10.50;;;;;;;3.97;100.00;98419.35;1821068;79;26227;-81
2020/12/29 01:14:52;;;;;;;18.20;10.43;;;;;;;3.91;100.00;98422.73;1787731;80;26281;-80
2020/12/29 01:17:22;;;;;;;14.33;9.77;;;;;;;3.90;100.00;98425.77;1757772;81;26303;-81
2020/12/29 01:19:52;;;;;;;15.53;10.17;;;;;;;3.83;100.00;98430.84;1821006;79;26329;-80
2020/12/29 01:22:22;;;;;;;15.93;9.37;;;;;;;3.80;100.00;98432.83;1821004;79;26304;-80
2020/12/29 01:24:52;;;;;;;16.40;10.67;;;;;;;3.79;100.00;98429.81;1787787;80;26226;-80
2020/12/29 01:27:22;;;;;;;16.80;11.20;;;;;;;3.79;100.00;98434.75;1757831;81;26707;-81
2020/12/29 01:29:53;;;;;;;18.10;11.07;;;;;;;3.81;100.00;98442.12;1821054;79;26224;-80
2020/12/29 01:32:22;;;;;;;16.87;11.50;;;;;;;3.78;100.00;98440.53;1821014;79;26239;-80
2020/12/29 01:34:52;;;;;;;15.43;10.90;;;;;;;3.80;100.00;98445.18;1787737;80;26225;-80
2020/12/29 01:37:22;;;;;;;16.17;10.97;;;;;;;3.76;100.00;98456.50;1757793;81;26280;-80
2020/12/29 01:39:54;;;;;;;19.37;11.20;;;;;;;3.84;100.00;98455.27;1820974;79;26365;-80
2020/12/29 01:42:23;;;;;;;18.30;11.10;;;;;;;3.73;100.00;98457.90;1787769;80;26233;-80
2020/12/29 01:44:53;;;;;;;17.93;11.80;;;;;;;3.68;100.00;98461.53;1757832;81;26301;-80
2020/12/29 01:47:25;;;;;;;15.70;11.20;;;;;;;3.73;100.00;98466.13;1821064;78;26220;-79
2020/12/29 01:49:56;;;;;;;17.70;11.40;;;;;;;3.74;100.00;98471.07;1787754;80;26347;-80
2020/12/29 01:52:26;;;;;;;16.67;10.37;;;;;;;3.70;100.00;98476.90;1757821;81;26311;-80
2020/12/29 01:54:57;;;;;;;15.50;9.67;;;;;;;3.67;100.00;98479.70;1821058;79;26745;-80
2020/12/29 01:57:27;;;;;;;16.23;10.33;;;;;;;3.56;100.00;98479.02;1787805;80;26738;-80
2020/12/29 01:59:57;;;;;;;16.47;10.00;;;;;;;3.56;100.00;98479.02;1821172;79;26784;-80
2020/12/29 02:02:27;;;;;;;15.50;11.13;;;;;;;3.47;100.00;98480.80;1787762;80;26316;-80
2020/12/29 02:04:58;;;;;;;15.17;10.07;;;;;;;3.53;100.00;98474.69;1757876;81;26245;-81
2020/12/29 02:07:29;;;;;;;15.73;10.60;;;;;;;3.57;100.00;98483.41;1820931;79;26220;-80
2020/12/29 02:10:00;;;;;;;16.73;10.83;;;;;;;3.56;100.00;98491.92;1820941;75;26334;-80
2020/12/29 02:12:31;;;;;;;15.37;10.93;;;;;;;3.50;100.00;98493.95;1821035;78;26220;-80
2020/12/29 02:15:04;;;;;;;17.23;10.60;;;;;;;3.55;100.00;98486.20;1787806;80;26216;-80
2020/12/29 02:17:34;;;;;;;18.70;10.47;;;;;;;3.57;100.00;98485.33;1757806;81;26244;-81
2020/12/29 02:20:05;;;;;;;16.33;10.73;;;;;;;3.55;100.00;98488.36;1821032;79;26248;-79
2020/12/29 02:22:35;;;;;;;16.43;11.57;;;;;;;3.49;100.00;98492.86;1820964;79;26223;-80
2020/12/29 02:25:07;;;;;;;18.30;12.40;;;;;;;3.42;100.00;98492.42;1787735;80;26235;-80
2020/12/29 02:27:46;;;;;;;18.37;11.40;;;;;;;3.55;100.00;98499.92;1757810;81;26672;-81
2020/12/29 02:30:17;;;;;;;19.30;12.07;;;;;;;3.52;100.00;98501.31;1820916;79;26301;-81
2020/12/29 02:32:47;;;;;;;18.47;12.13;;;;;;;3.43;100.00;98499.52;1787761;80;26294;-81
2020/12/29 02:35:18;;;;;;;16.17;10.30;;;;;;;3.54;100.00;98501.02;1757788;81;26241;-81
2020/12/29 02:37:48;;;;;;;20.50;10.40;;;;;;;3.37;100.00;98503.47;1820896;79;26225;-81
2020/12/29 02:40:18;;;;;;;18.10;10.63;;;;;;;3.36;100.00;98510.88;1787725;80;26215;-80
2020/12/29 02:42:48;;;;;;;16.97;10.23;;;;;;;3.35;100.00;98511.98;1757792;81;26226;-81
2020/12/29 02:45:18;;;;;;;16.47;10.40;;;;;;;3.41;100.00;98515.48;1820954;79;26290;-81
2020/12/29 02:47:48;;;;;;;17.00;10.57;;;;;;;3.32;100.00;98511.20;1821072;79;26223;-80
2020/12/29 02:50:17;;;;;;;15.27;10.10;;;;;;;3.43;100.00;98518.73;1787685;80;26780;-81
2020/12/29 02:52:47;;;;;;;16.07;10.37;;;;;;;3.35;100.00;98521.58;1757833;81;26315;-81
2020/12/29 02:55:17;;;;;;;17.90;9.80;;;;;;;3.25;100.00;98519.55;1820973;78;26660;-81
2020/12/29 02:57:47;;;;;;;17.47;10.40;;;;;;;3.30;100.00;98527.69;1787774;80;26759;-81
2020/12/29 03:00:17;;;;;;;15.20;10.10;;;;;;;3.39;100.00;98525.37;1757817;81;26664;-81
2020/12/29 03:02:47;;;;;;;18.43;11.53;;;;;;;3.40;100.00;98528.93;1821007;79;26793;-82
2020/12/29 03:05:16;;;;;;;15.90;10.53;;;;;;;3.40;100.00;98531.67;1820965;79;26646;-80
2020/12/29 03:07:46;;;;;;;17.40;10.00;;;;;;;3.31;100.00;98532.06;1787829;80;26251;-81
2020/12/29 03:10:16;;;;;;;16.93;10.37;;;;;;;3.28;100.00;98527.17;1757674;80;26355;-80
2020/12/29 03:12:46;;;;;;;17.23;10.87;;;;;;;3.30;100.00;98540.02;1820887;79;26224;-81
2020/12/29 03:15:16;;;;;;;17.50;10.67;;;;;;;3.30;100.00;98534.55;1787772;80;26214;-80
2020/12/29 03:17:45;;;;;;;17.77;10.77;;;;;;;3.40;100.00;98540.72;1757757;81;26237;-80
2020/12/29 03:20:15;;;;;;;15.30;9.97;;;;;;;3.44;100.00;98546.44;1820953;79;26278;-81
2020/12/29 03:22:45;;;;;;;16.37;10.30;;;;;;;3.33;100.00;98553.17;1820947;79;26280;-80
2020/12/29 03:25:15;;;;;;;16.37;11.03;;;;;;;3.35;100.00;98551.77;1787799;80;26219;-81
2020/12/29 03:27:45;;;;;;;17.07;10.40;;;;;;;3.41;100.00;98556.08;1757767;81;26315;-80
2020/12/29 03:30:15;;;;;;;16.53;10.37;;;;;;;3.42;100.00;98557.72;1820903;79;26294;-80
2020/12/29 03:32:45;;;;;;;15.43;10.20;;;;;;;3.35;100.00;98556.42;1821033;79;26383;-80
2020/12/29 03:35:15;;;;;;;17.30;10.40;;;;;;;3.34;100.00;98558.34;1787902;80;26211;-80
2020/12/29 03:37:44;;;;;;;14.43;10.03;;;;;;;3.36;100.00;98557.52;1821112;79;26274;-80
2020/12/29 03:40:14;;;;;;;15.37;9.70;;;;;;;3.35;100.00;98550.39;1787889;80;26301;-81
2020/12/29 03:42:44;;;;;;;15.83;9.53;;;;;;;3.39;100.00;98551.98;1821097;79;26686;-80
2020/12/29 03:45:14;;;;;;;13.67;9.80;;;;;;;3.41;100.00;98559.38;1821092;79;26749;-80
2020/12/29 03:47:44;;;;;;;14.67;10.13;;;;;;;3.46;100.00;98556.02;1787842;80;26210;-80
2020/12/29 03:50:13;;;;;;;14.90;9.90;;;;;;;3.38;100.00;98552.53;1757845;81;26225;-80
2020/12/29 03:52:46;;;;;;;17.07;10.97;;;;;;;3.42;100.00;98565.95;1821028;79;26227;-80
2020/12/29 03:55:16;;;;;;;14.50;9.33;;;;;;;3.51;100.00;98561.97;1787825;80;26981;-80
2020/12/29 03:57:46;;;;;;;14.97;9.80;;;;;;;3.49;100.00;98555.42;1821041;79;26278;-80
2020/12/29 04:00:16;;;;;;;13.40;8.93;;;;;;;3.51;100.00;98549.06;1787817;80;26230;-80
2020/12/29 04:02:46;;;;;;;13.10;8.50;;;;;;;3.45;100.00;98555.75;1821082;78;26215;-80
2020/12/29 04:05:16;;;;;;;13.13;8.40;;;;;;;3.44;100.00;98556.86;1787842;80;26804;-80
2020/12/29 04:07:48;;;;;;;11.97;8.13;;;;;;;3.39;100.00;98556.92;1821130;78;26675;-80
2020/12/29 04:10:18;;;;;;;12.30;7.97;;;;;;;3.39;100.00;98558.84;1787742;78;26250;-79
2020/12/29 04:12:48;;;;;;;11.70;8.50;;;;;;;3.34;100.00;98557.56;1820989;79;26224;-79
2020/12/29 04:15:18;;;;;;;11.17;8.47;;;;;;;3.38;100.00;98567.63;1821119;79;26236;-80
2020/12/29 04:17:47;;;;;;;12.50;8.27;;;;;;;3.31;100.00;98578.70;1821146;79;26699;-80
2020/12/29 04:20:17;;;;;;;10.83;8.63;;;;;;;3.33;100.00;98581.98;1821103;79;26820;-80
2020/12/29 04:22:47;;;;;;;13.93;7.77;;;;;;;3.34;100.00;98585.78;1787799;79;26304;-79
2020/12/29 04:25:17;;;;;;;12.63;7.77;;;;;;;3.37;100.00;98582.48;1821178;78;26266;-80
2020/12/29 04:27:47;;;;;;;9.63;7.60;;;;;;;3.44;100.00;98581.55;1821104;79;26707;-80
2020/12/29 04:30:17;;;;;;;11.90;8.37;;;;;;;3.40;100.00;98583.80;1787760;80;26698;-80
2020/12/29 04:32:49;;;;;;;10.30;7.30;;;;;;;3.34;100.00;98585.78;1821010;79;26279;-80
2020/12/29 04:35:18;;;;;;;12.73;7.90;;;;;;;3.43;100.00;98588.14;1821176;79;26698;-80
2020/12/29 04:37:48;;;;;;;11.47;7.40;;;;;;;3.39;100.00;98586.28;1821140;78;26766;-80
2020/12/29 04:40:18;;;;;;;13.10;7.97;;;;;;;3.56;100.00;98593.47;1787777;80;26291;-79
2020/12/29 04:42:49;;;;;;;11.27;6.90;;;;;;;3.59;100.00;98593.69;1821141;78;26209;-80
2020/12/29 04:45:19;;;;;;;10.60;7.30;;;;;;;3.56;100.00;98599.77;1821139;79;26256;-80
2020/12/29 04:47:50;;;;;;;12.13;8.47;;;;;;;3.60;100.00;98594.51;1787809;80;26657;-80
2020/12/29 04:50:20;;;;;;;11.03;7.30;;;;;;;3.62;100.00;98586.81;1821118;79;26223;-80
2020/12/29 04:52:53;;;;;;;9.83;6.90;;;;;;;3.56;100.00;98592.09;1787795;80;26317;-80
2020/12/29 04:55:30;;;;;;;13.13;7.63;;;;;;;3.49;100.00;98592.47;1821002;79;26411;-80
2020/12/29 04:58:01;;;;;;;8.87;6.83;;;;;;;3.55;100.00;98592.64;1821074;79;26219;-80
2020/12/29 05:00:31;;;;;;;9.90;7.40;;;;;;;3.58;100.00;98595.38;1776297;80;928534;-80
2020/12/29 05:03:01;;;;;;;13.23;7.80;;;;;;;3.56;100.00;98598.41;1821131;78;26216;-79
2020/12/29 05:05:31;;;;;;;11.80;7.97;;;;;;;3.56;100.00;98596.20;1787759;80;26222;-80
2020/12/29 05:08:01;;;;;;;10.30;7.37;;;;;;;3.62;100.00;98595.87;1821086;79;26705;-80
2020/12/29 05:10:31;;;;;;;10.07;7.30;;;;;;;3.67;100.00;98589.49;1787707;78;26293;-80
2020/12/29 05:13:02;;;;;;;10.87;7.07;;;;;;;3.68;100.00;98587.56;1821023;79;26223;-80
2020/12/29 05:15:31;;;;;;;11.97;8.20;;;;;;;3.70;100.00;98594.94;1787858;80;26672;-80
2020/12/29 05:18:03;;;;;;;11.53;7.80;;;;;;;3.76;100.00;98597.33;1821109;78;26286;-79
2020/12/29 05:20:34;;;;;;;12.00;7.47;;;;;;;3.81;100.00;98598.61;1787776;80;26320;-80
2020/12/29 05:23:05;;;;;;;11.37;7.03;;;;;;;3.77;100.00;98594.82;1787405;80;26262;-80
2020/12/29 05:25:35;;;;;;;11.43;7.77;;;;;;;3.76;100.00;98603.38;1821049;79;26244;-80
2020/12/29 05:28:07;;;;;;;9.80;6.67;;;;;;;3.77;100.00;98602.23;1787731;80;26292;-80
2020/12/29 05:30:38;;;;;;;10.20;7.70;;;;;;;3.77;100.00;98604.43;1821129;79;26567;-81
2020/12/29 05:33:12;;;;;;;12.30;8.10;;;;;;;3.66;100.00;98602.40;1787734;80;26301;-80
2020/12/29 05:35:43;;;;;;;9.77;7.23;;;;;;;3.68;100.00;98613.87;1821127;78;26214;-81
2020/12/29 05:38:13;;;;;;;10.27;7.10;;;;;;;3.66;100.00;98616.13;1821062;79;26208;-80
2020/12/29 05:40:45;;;;;;;11.53;7.13;;;;;;;3.65;100.00;98615.85;1787887;80;26234;-81
2020/12/29 05:43:15;;;;;;;13.93;8.17;;;;;;;3.64;100.00;98625.19;1821111;78;26227;-80
2020/12/29 05:45:47;;;;;;;13.73;8.63;;;;;;;3.77;100.00;98621.45;1787795;80;26289;-81
2020/12/29 05:48:18;;;;;;;14.70;8.60;;;;;;;3.78;100.00;98627.22;1821037;79;26379;-80
2020/12/29 05:50:48;;;;;;;12.63;8.17;;;;;;;3.81;100.00;98623.91;1787833;80;26238;-80
2020/12/29 05:53:21;;;;;;;9.50;7.10;;;;;;;3.74;100.00;98626.17;1821096;78;26224;-80
2020/12/29 05:55:51;;;;;;;14.10;8.20;;;;;;;3.75;100.00;98636.05;1787695;80;26645;-80
2020/12/29 05:58:22;;;;;;;9.97;7.20;;;;;;;3.77;100.00;98637.92;1821094;79;26248;-80
2020/12/29 06:00:53;;;;;;;10.47;7.37;;;;;;;3.76;100.00;98637.14;1787826;80;26281;-80
2020/12/29 06:03:25;;;;;;;12.03;7.37;;;;;;;3.83;100.00;98636.20;1821074;79;26216;-80
2020/12/29 06:05:56;;;;;;;11.23;7.57;;;;;;;3.79;100.00;98632.97;1821069;79;26228;-80
2020/12/29 06:08:28;;;;;;;11.10;7.47;;;;;;;3.85;100.00;98638.67;1821130;79;26244;-80
2020/12/29 06:11:03;;;;;;;12.73;7.60;;;;;;;3.79;100.00;98628.86;1787736;80;26642;-79
2020/12/29 06:13:38;;;;;;;13.77;7.67;;;;;;;3.85;100.00;98633.17;1820973;77;26325;-80
2020/12/29 06:16:09;;;;;;;9.23;7.00;;;;;;;3.82;100.00;98635.94;1821025;79;26338;-80
2020/12/29 06:18:42;;;;;;;10.27;6.60;;;;;;;3.78;100.00;98639.56;1821023;78;26231;-80
2020/12/29 06:21:14;;;;;;;9.50;6.47;;;;;;;3.77;100.00;98641.49;1821090;79;26212;-81
2020/12/29 06:23:48;;;;;;;9.60;6.03;;;;;;;3.71;100.00;98644.61;1787738;79;26328;-80
2020/12/29 06:26:20;;;;;;;7.83;5.83;;;;;;;3.74;100.00;98654.45;1821115;78;26714;-80
2020/12/29 06:28:52;;;;;;;11.77;7.20;;;;;;;3.74;100.00;98646.20;1787739;80;26705;-80
2020/12/29 06:31:29;;;;;;;9.63;7.27;;;;;;;3.74;100.00;98654.45;1821013;78;26208;-80
2020/12/29 06:34:00;;;;;;;10.17;6.50;;;;;;;3.79;100.00;98657.68;1787676;80;26226;-80
2020/12/29 06:36:30;;;;;;;9.80;6.17;;;;;;;3.78;100.00;98658.78;1821049;78;26282;-79
2020/12/29 06:39:06;;;;;;;7.57;5.80;;;;;;;3.70;100.00;98659.44;1787811;80;26261;-79
2020/12/29 06:41:36;;;;;;;10.17;7.17;;;;;;;3.68;100.00;98669.92;1820965;79;26873;-77
2020/12/29 06:44:05;;;;;;;10.00;7.30;;;;;;;3.78;100.00;98676.63;1821030;79;26791;-77
2020/12/29 06:46:35;;;;;;;10.70;7.23;;;;;;;3.83;100.00;98682.06;1787737;80;26707;-77
2020/12/29 06:49:22;;;;;;;9.43;6.93;;;;;;;3.85;100.00;98688.09;1821092;78;26267;-77
2020/12/29 06:52:18;;;;;;;11.37;8.43;;;;;;;3.79;100.00;98688.70;1787835;80;26328;-80
2020/12/29 06:54:49;;;;;;;12.73;8.10;;;;;;;3.81;100.00;98701.56;1821044;78;26313;-78
2020/12/29 06:57:23;;;;;;;9.83;6.83;;;;;;;3.85;100.00;98698.49;1787826;80;26496;-77
2020/12/29 06:59:53;;;;;;;8.87;6.80;;;;;;;3.81;100.00;98709.02;1787747;80;26307;-77
2020/12/29 07:02:24;;;;;;;10.37;6.60;;;;;;;3.86;100.00;98707.55;1820943;79;26245;-78
2020/12/29 07:04:55;;;;;;;10.07;7.13;;;;;;;3.86;100.00;98719.36;1787690;80;26624;-79
2020/12/29 07:07:33;;;;;;;10.50;6.87;;;;;;;3.87;100.00;98722.92;1821045;79;26276;-78
2020/12/29 07:10:11;;;;;;;11.47;7.27;;;;;;;3.93;100.00;98730.00;1821045;79;26314;-77
2020/12/29 07:12:46;;;;;;;9.57;6.93;;;;;;;3.92;100.00;98729.73;1820874;74;26322;-79
2020/12/29 07:15:19;;;;;;;9.57;7.50;;;;;;;3.93;100.00;98737.69;1787739;80;26322;-76
2020/12/29 07:17:57;;;;;;;10.17;6.80;;;;;;;3.92;100.00;98744.28;1821183;79;26720;-80
2020/12/29 07:20:30;;;;;;;11.10;7.47;;;;;;;3.94;100.00;98751.66;1821117;79;26256;-80
2020/12/29 07:23:04;;;;;;;10.90;7.47;;;;;;;3.92;100.00;98735.22;1787817;79;26247;-79
2020/12/29 07:25:35;;;;;;;10.67;6.97;;;;;;;3.92;100.00;98737.97;1821118;78;26216;-79
2020/12/29 07:28:07;;;;;;;11.10;7.90;;;;;;;3.92;100.00;98733.84;1787774;80;26238;-79
2020/12/29 07:30:37;;;;;;;9.30;7.20;;;;;;;3.98;100.00;98740.34;1821075;78;26204;-79
2020/12/29 07:33:09;;;;;;;9.90;7.33;;;;;;;3.89;100.00;98746.80;1821041;79;26282;-80
2020/12/29 07:35:40;;;;;;;12.47;7.57;;;;;;;3.95;100.00;98745.61;1821098;79;26291;-80
2020/12/29 07:38:15;;;;;;;10.50;7.57;;;;;;;3.95;100.00;98746.44;1787820;80;26237;-79
2020/12/29 07:40:45;;;;;;;11.17;7.67;;;;;;;3.95;100.00;98747.80;1821042;79;26219;-80
2020/12/29 07:43:15;;;;;;;10.90;6.93;;;;;;;3.95;100.00;98750.55;1821045;79;26381;-79
2020/12/29 07:45:45;;;;;;;12.10;6.90;;;;;;;4.01;100.00;98751.31;1787853;80;26369;-79
2020/12/29 07:48:15;;;;;;;9.33;7.10;;;;;;;3.88;100.00;98762.45;1821112;78;26325;-79
2020/12/29 07:50:46;;;;;;;10.53;7.37;;;;;;;3.71;100.00;98764.85;1787761;80;26669;-79
2020/12/29 07:53:15;;;;;;;11.23;7.50;;;;;;;3.78;100.00;98773.55;1820963;79;26275;-79
2020/12/29 07:55:47;;;;;;;10.03;6.97;;;;;;;3.86;100.00;98778.39;1820989;79;26278;-80
2020/12/29 07:58:17;;;;;;;9.30;7.27;;;;;;;3.96;100.00;98785.16;1787704;80;26214;-81
2020/12/29 08:00:47;;;;;;;10.63;7.50;;;;;;;4.00;100.00;98784.83;1821002;78;26285;-80
2020/12/29 08:03:18;;;;;;;9.70;6.77;;;;;;;4.01;100.00;98795.27;1820949;79;26301;-80
2020/12/29 08:05:48;;;;;;;11.33;7.23;;;;;;;3.98;100.00;98799.98;1821024;79;26220;-80
2020/12/29 08:08:18;;;;;;;9.23;7.47;;;;;;;3.97;100.00;98803.83;1820962;79;26219;-82
2020/12/29 08:10:48;;;;;;;11.63;7.77;;;;;;;3.96;100.00;98800.81;1787684;80;26217;-81
2020/12/29 08:13:20;;;;;;;11.80;8.00;;;;;;;3.97;100.00;98805.20;1820943;77;26327;-81
2020/12/29 08:15:51;;;;;;;10.23;7.43;;;;;;;4.04;100.00;98802.91;1787668;80;26323;-82
2020/12/29 08:18:21;;;;;;;11.10;7.77;;;;;;;4.00;100.00;98804.05;1820967;79;26228;-81
2020/12/29 08:20:54;;;;;;;14.47;8.20;;;;;;;4.03;100.00;98813.07;1787822;80;26281;-81
2020/12/29 08:23:25;;;;;;;9.43;6.87;;;;;;;4.03;100.00;98813.63;1821172;78;26280;-80
2020/12/29 08:25:57;;;;;;;9.87;7.77;;;;;;;4.02;100.00;98827.91;1821182;79;26864;-80
2020/12/29 08:28:28;;;;;;;9.63;7.13;;;;;;;4.08;100.00;98838.30;1787881;80;26246;-79
2020/12/29 08:31:00;;;;;;;11.00;7.83;;;;;;;4.07;100.00;98831.98;1821090;79;26346;-80
2020/12/29 08:33:31;;;;;;;10.53;8.00;;;;;;;4.08;100.00;98828.68;1787856;80;26239;-81
2020/12/29 08:36:03;;;;;;;10.50;7.73;;;;;;;4.11;100.00;98833.03;1821141;78;26240;-80
2020/12/29 08:38:47;;;;;;;12.13;8.13;;;;;;;4.05;100.00;98835.59;1787821;80;26328;-81
2020/12/29 08:41:21;;;;;;;11.50;8.23;;;;;;;4.06;100.00;98844.65;1821040;79;26294;-80
2020/12/29 08:43:53;;;;;;;12.80;7.73;;;;;;;4.04;100.00;98846.30;1787774;80;26214;-81
2020/12/29 08:46:25;;;;;;;10.97;7.77;;;;;;;4.14;100.00;98845.38;1821136;79;26245;-81
2020/12/29 08:48:56;;;;;;;12.33;8.47;;;;;;;4.08;100.00;98857.52;1821100;79;26272;-80
2020/12/29 08:51:28;;;;;;;13.43;7.83;;;;;;;4.12;100.00;98856.65;1821120;79;26756;-80
2020/12/29 08:54:09;;;;;;;10.30;7.90;;;;;;;4.15;100.00;98865.44;1821111;79;26691;-78
2020/12/29 08:56:39;;;;;;;11.30;8.47;;;;;;;4.11;100.00;98869.29;1787755;80;26250;-78
2020/12/29 08:59:14;;;;;;;11.00;7.90;;;;;;;4.13;100.00;98868.46;1821040;78;26219;-80
2020/12/29 09:01:46;;;;;;;12.90;8.37;;;;;;;4.19;100.00;98867.30;1821036;79;26699;-81
2020/12/29 09:04:28;;;;;;;10.77;8.17;;;;;;;4.16;100.00;98865.13;1787855;80;26242;-79
2020/12/29 09:06:59;;;;;;;12.97;8.17;;;;;;;4.23;100.00;98872.48;1821144;78;26394;-82
2020/12/29 09:09:30;;;;;;;12.63;8.83;;;;;;;4.16;100.00;98882.98;1787766;80;26791;-79
2020/12/29 09:12:08;;;;;;;13.40;8.87;;;;;;;4.12;100.00;98880.55;1821144;78;26754;-79
2020/12/29 09:14:39;;;;;;;14.33;8.53;;;;;;;4.10;100.00;98884.16;1787932;78;26352;-81
2020/12/29 09:17:09;;;;;;;12.17;8.07;;;;;;;4.12;100.00;98884.67;1821259;78;26264;-83
2020/12/29 09:19:39;;;;;;;12.30;8.67;;;;;;;4.12;100.00;98891.54;1788038;80;26964;-83
2020/12/29 09:22:12;;;;;;;12.70;8.03;;;;;;;4.21;100.00;98895.30;1821066;79;26740;-86
2020/12/29 09:24:53;;;;;;;13.73;8.50;;;;;;;4.13;100.00;98896.75;1787896;79;26752;-82
2020/12/29 09:27:33;;;;;;;13.57;8.53;;;;;;;4.14;100.00;98897.58;1821130;79;26215;-82
2020/12/29 09:30:14;;;;;;;13.67;8.90;;;;;;;4.19;100.00;98909.07;1787806;80;26226;-83
2020/12/29 09:32:44;;;;;;;13.90;8.73;;;;;;;4.20;100.00;98917.00;1821174;78;26319;-83
2020/12/29 09:35:26;;;;;;;13.27;9.20;;;;;;;4.23;100.00;98921.11;1821163;79;26227;-84
2020/12/29 09:37:58;;;;;;;14.90;10.17;;;;;;;4.23;100.00;98921.11;1787915;80;26308;-84
2020/12/29 09:40:29;;;;;;;12.97;9.23;;;;;;;4.20;100.00;98926.62;1757838;81;26331;-84
2020/12/29 09:42:59;;;;;;;16.70;9.63;;;;;;;4.11;100.00;98929.73;1821264;79;26240;-81
2020/12/29 09:45:29;;;;;;;16.83;9.80;;;;;;;4.20;100.00;98930.73;1821127;79;26216;-82
2020/12/29 09:47:59;;;;;;;14.70;10.33;;;;;;;4.24;100.00;98937.84;1787969;80;26300;-82
2020/12/29 09:50:29;;;;;;;15.70;10.03;;;;;;;4.21;100.00;98937.05;1757953;81;26232;-81
2020/12/29 09:52:59;;;;;;;14.30;9.70;;;;;;;4.23;100.00;98940.34;1821069;79;26267;-82
2020/12/29 09:55:28;;;;;;;13.33;9.67;;;;;;;4.26;100.00;98943.33;1821148;79;26220;-82
2020/12/29 09:57:58;;;;;;;13.70;9.27;;;;;;;4.17;100.00;98947.81;1821172;79;26226;-83
2020/12/29 10:00:28;;;;;;;15.83;10.37;;;;;;;4.29;100.00;98954.28;1787923;80;26753;-83
2020/12/29 10:03:00;;;;;;;13.57;10.07;;;;;;;4.28;100.00;98961.70;1821284;79;26303;-81
2020/12/29 10:05:30;;;;;;;13.30;9.97;;;;;;;4.30;100.00;98962.80;1787746;80;26665;-83
2020/12/29 10:08:01;;;;;;;13.00;9.93;;;;;;;4.37;100.00;98959.14;1821154;78;26809;-82
2020/12/29 10:10:31;;;;;;;14.20;9.80;;;;;;;4.32;100.00;98958.64;1821139;79;26215;-82
2020/12/29 10:13:00;;;;;;;13.43;9.67;;;;;;;4.36;100.00;98961.09;1821187;79;26354;-82
2020/12/29 10:15:32;;;;;;;14.63;8.77;;;;;;;4.37;100.00;98968.20;1821035;77;26384;-81
2020/12/29 10:18:02;;;;;;;14.97;9.70;;;;;;;4.63;100.00;98970.13;1787822;80;26748;-81
2020/12/29 10:20:32;;;;;;;11.83;8.40;;;;;;;4.65;100.00;98972.05;1820973;78;26710;-82
2020/12/29 10:23:02;;;;;;;14.27;8.80;;;;;;;4.40;100.00;98964.91;1787574;79;26689;-82
2020/12/29 10:25:32;;;;;;;14.53;9.70;;;;;;;4.16;100.00;98966.77;1820754;78;26271;-81
2020/12/29 10:28:02;;;;;;;16.10;9.10;;;;;;;4.16;100.00;98970.89;1787523;80;26203;-82
2020/12/29 10:30:32;;;;;;;13.27;9.70;;;;;;;4.13;100.00;98964.61;1820838;78;26667;-81
2020/12/29 10:33:02;;;;;;;14.13;10.57;;;;;;;4.21;100.00;98973.59;1787576;80;26207;-81
2020/12/29 10:35:32;;;;;;;15.40;10.67;;;;;;;4.11;100.00;98977.25;1820875;79;26676;-81
2020/12/29 10:38:02;;;;;;;15.03;10.57;;;;;;;4.10;100.00;98981.68;1787668;80;26642;-81
2020/12/29 10:40:31;;;;;;;16.67;9.60;;;;;;;4.19;100.00;98987.37;1757690;81;26229;-81
2020/12/29 10:43:01;;;;;;;16.17;10.50;;;;;;;4.11;100.00;98997.86;1820912;79;26697;-81
2020/12/29 10:45:31;;;;;;;17.30;10.87;;;;;;;4.22;100.00;99004.09;1787609;80;26317;-81
2020/12/29 10:48:01;;;;;;;16.67;10.20;;;;;;;4.34;100.00;99007.27;1757655;81;26305;-81
2020/12/29 10:50:31;;;;;;;14.23;9.57;;;;;;;4.39;100.00;99008.60;1820894;79;26337;-81
2020/12/29 10:53:01;;;;;;;14.33;9.53;;;;;;;4.39;100.00;99006.41;1820928;79;26248;-81
2020/12/29 10:55:31;;;;;;;16.80;10.43;;;;;;;4.43;100.00;99019.28;1820897;79;26822;-82
2020/12/29 10:58:01;;;;;;;16.20;10.60;;;;;;;4.39;100.00;99021.52;1820830;79;26690;-81
2020/12/29 11:00:31;;;;;;;16.77;10.90;;;;;;;4.45;100.00;99022.55;1787651;80;26677;-82
2020/12/29 11:03:01;;;;;;;17.30;10.30;;;;;;;4.54;100.00;99025.48;1820858;79;26208;-81
2020/12/29 11:05:30;;;;;;;18.17;11.53;;;;;;;4.51;100.00;99034.32;1787606;80;26219;-82
2020/12/29 11:08:00;;;;;;;17.13;10.60;;;;;;;4.50;100.00;99040.37;1757668;81;26381;-82
2020/12/29 11:10:30;;;;;;;14.43;9.43;;;;;;;4.53;100.00;99041.19;1820824;79;26843;-82
2020/12/29 11:13:00;;;;;;;13.67;9.87;;;;;;;4.55;100.00;99045.00;1787527;80;26688;-81
2020/12/29 11:15:30;;;;;;;13.93;9.70;;;;;;;4.51;100.00;99046.69;1820734;77;26317;-81
2020/12/29 11:18:00;;;;;;;16.00;10.77;;;;;;;4.53;100.00;99044.48;1787485;80;26230;-81
2020/12/29 11:20:30;;;;;;;16.07;10.13;;;;;;;4.56;100.00;99043.34;1757640;81;26295;-81
2020/12/29 11:23:00;;;;;;;15.37;10.13;;;;;;;4.55;100.00;99046.38;1820610;79;26243;-82
2020/12/29 11:25:30;;;;;;;16.00;10.27;;;;;;;4.57;100.00;99051.05;1820805;79;26223;-81
2020/12/29 11:27:59;;;;;;;21.17;11.93;;;;;;;4.59;100.00;99048.26;1787432;80;26228;-81
2020/12/29 11:30:29;;;;;;;17.70;11.70;;;;;;;4.63;100.00;99047.66;1757542;81;26228;-81
2020/12/29 11:32:59;;;;;;;19.47;11.80;;;;;;;4.57;100.00;99053.23;1820772;79;26216;-81
2020/12/29 11:35:29;;;;;;;15.80;11.33;;;;;;;4.54;100.00;99044.17;1787499;80;26289;-81
2020/12/29 11:37:59;;;;;;;18.90;11.67;;;;;;;4.51;100.00;99055.76;1757515;81;26322;-81
2020/12/29 11:40:29;;;;;;;15.50;11.43;;;;;;;4.59;100.00;99051.55;1820862;79;26300;-81